»·PEaware :: WAT169 KSLC-KJAC

WAT169 :: KSLC-KJAC

FLIGHT INFORMATION

Flight Status: Arrived
Operator:
Walker Air Transport
More flights by this operator :: More flights under this callsign
Pilot: Marty P. (27464)
Aircraft: BOEING 737-800
(B738)
More flights by this aircraft type
Origin: KSLC Salt Lake City Intl
United States
Destination: KJAC Jackson Hole
United States
More flights between these airports :: More routes between these airports
Route: RUGGD1 HOLTR LEIDY DNW
File this flight plan on PilotEdge
Remarks:
Altitude:
(Current/Filed)
27,000ft
Speed:
(Current/Filed)
480kts
Departed: 22-Feb-21 03:16 PM
Arrived: 22-Feb-21 03:57 PM
Distance/Time
Traveled:
178nm/0:40
Distance/Time
To Go:
Arrived

Flight Plot

Page will automatically refresh every two minutes.

Flight plan parsing failed; only flown route is shown


Map Options




Map Legend


Flown Route
Filed Route
Departure Airport
Arrival Airport
Navaid (VOR, NDB)
Fix

Horizontal Profiles

Position Reports

Time Latitude Longitude Heading Altitude Ground
Speed
22-Feb-21 14:48 40.788517 -111.977944 265 4226ft 0kts
22-Feb-21 14:49 40.788517 -111.977944 265 4226ft 0kts
22-Feb-21 14:50 40.788517 -111.977944 265 4226ft 0kts
22-Feb-21 14:51 40.788517 -111.977944 265 4226ft 0kts
22-Feb-21 14:52 40.788517 -111.977944 265 4226ft 0kts
22-Feb-21 14:53 40.788517 -111.977944 265 4226ft 0kts
22-Feb-21 14:54 40.788517 -111.977944 265 4226ft 0kts
22-Feb-21 14:55 40.788517 -111.977944 265 4226ft 0kts
22-Feb-21 14:56 40.788517 -111.977944 265 4226ft 0kts
22-Feb-21 14:57 40.788517 -111.977944 265 4226ft 0kts
22-Feb-21 14:58 40.788517 -111.977944 265 4226ft 0kts
22-Feb-21 14:59 40.788531 -111.977712 265 4226ft 2kts
22-Feb-21 15:00 40.788376 -111.977006 321 4226ft 2kts
22-Feb-21 15:01 40.788073 -111.976861 355 4226ft 0kts
22-Feb-21 15:02 40.788073 -111.976861 355 4226ft 0kts
22-Feb-21 15:03 40.788073 -111.976861 355 4226ft 0kts
22-Feb-21 15:04 40.788108 -111.976864 355 4226ft 1kts
22-Feb-21 15:05 40.789051 -111.976977 354 4226ft 5kts
22-Feb-21 15:06 40.791658 -111.977280 355 4225ft 13kts
22-Feb-21 15:07 40.795195 -111.977689 355 4226ft 10kts
22-Feb-21 15:08 40.798113 -111.978032 355 4226ft 11kts
22-Feb-21 15:09 40.800909 -111.978349 355 4231ft 11kts
22-Feb-21 15:10 40.805515 -111.978886 354 4229ft 21kts
22-Feb-21 15:11 40.807361 -111.978590 64 4229ft 0kts
22-Feb-21 15:12 40.807361 -111.978590 64 4229ft 0kts
22-Feb-21 15:13 40.807361 -111.978590 64 4229ft 0kts
22-Feb-21 15:14 40.807362 -111.978589 64 4229ft 0kts
22-Feb-21 15:15 40.803531 -111.976496 175 4233ft 78kts
22-Feb-21 15:16 40.760162 -111.982989 238 5951ft 192kts
22-Feb-21 15:17 40.780406 -112.051799 306 8381ft 255kts
22-Feb-21 15:18 40.825161 -112.130709 305 11893ft 280kts
22-Feb-21 15:19 40.901571 -112.143675 18 14776ft 343kts
22-Feb-21 15:20 40.986177 -112.072885 28 17395ft 375kts
22-Feb-21 15:21 41.060762 -111.970682 55 19970ft 410kts
22-Feb-21 15:22 41.115389 -111.834262 44 22176ft 419kts
22-Feb-21 15:23 41.214416 -111.768849 7 24224ft 404kts
22-Feb-21 15:24 41.324954 -111.734936 6 26181ft 414kts
22-Feb-21 15:25 41.439054 -111.699985 6 27420ft 436kts
22-Feb-21 15:26 41.561906 -111.662368 6 27407ft 465kts
22-Feb-21 15:27 41.686975 -111.623739 6 27412ft 463kts
22-Feb-21 15:28 41.811967 -111.585081 6 27411ft 462kts
22-Feb-21 15:29 41.936676 -111.546443 6 27392ft 462kts
22-Feb-21 15:30 42.061496 -111.507663 5 27363ft 461kts
22-Feb-21 15:31 42.186344 -111.468811 5 27357ft 461kts
22-Feb-21 15:32 42.308669 -111.411620 18 27355ft 474kts
22-Feb-21 15:33 42.425086 -111.326805 22 27357ft 480kts
22-Feb-21 15:34 42.540589 -111.236194 22 27356ft 480kts
22-Feb-21 15:35 42.655139 -111.143819 22 27231ft 470kts
22-Feb-21 15:36 42.764389 -111.054472 22 25169ft 454kts
22-Feb-21 15:37 42.870986 -110.966737 22 23335ft 436kts
22-Feb-21 15:38 42.969376 -110.885153 21 23314ft 393kts
22-Feb-21 15:39 43.061296 -110.810145 16 23316ft 384kts
22-Feb-21 15:40 43.157612 -110.750100 13 23289ft 380kts
22-Feb-21 15:41 43.253488 -110.691088 13 23274ft 380kts
22-Feb-21 15:42 43.349884 -110.631641 13 23269ft 373kts
22-Feb-21 15:43 43.437399 -110.577148 11 23062ft 340kts
22-Feb-21 15:44 43.518915 -110.526399 10 21982ft 296kts
22-Feb-21 15:45 43.592750 -110.480651 11 19239ft 286kts
22-Feb-21 15:46 43.663010 -110.437212 11 16606ft 275kts
22-Feb-21 15:47 43.733012 -110.394072 12 13979ft 266kts
22-Feb-21 15:48 43.793265 -110.378819 311 13341ft 202kts
22-Feb-21 15:49 43.820822 -110.446165 277 10949ft 205kts
22-Feb-21 15:50 43.815263 -110.515983 265 10964ft 180kts
22-Feb-21 15:51 43.796886 -110.582704 247 10284ft 189kts
22-Feb-21 15:52 43.765347 -110.640952 218 8690ft 194kts
22-Feb-21 15:53 43.720833 -110.679186 192 8701ft 191kts
22-Feb-21 15:54 43.674486 -110.704989 197 7692ft 147kts
22-Feb-21 15:55 43.636252 -110.723594 198 6917ft 148kts
22-Feb-21 15:56 43.605478 -110.738678 199 6431ft 15kts
22-Feb-21 15:57 43.603586 -110.737447 109 6430ft 3kts
22-Feb-21 15:58 43.603490 -110.737065 110 6430ft 0kts
22-Feb-21 15:59 43.603490 -110.737065 110 6430ft 0kts
22-Feb-21 16:00 43.603490 -110.737065 110 6430ft 0kts
22-Feb-21 16:01 43.603490 -110.737065 110 6430ft 0kts
22-Feb-21 16:02 43.603490 -110.737065 110 6430ft 0kts
22-Feb-21 16:03 43.603490 -110.737065 110 6430ft 0kts
22-Feb-21 16:04 43.603490 -110.737065 110 6430ft 0kts
22-Feb-21 16:05 43.603490 -110.737065 110 6430ft 0kts
22-Feb-21 16:06 43.603490 -110.737065 110 6430ft 0kts
22-Feb-21 16:07 43.603490 -110.737065 110 6430ft 0kts
22-Feb-21 16:08 43.603490 -110.737065 110 6430ft 0kts
22-Feb-21 16:09 43.603490 -110.737065 110 6430ft 0kts
22-Feb-21 16:10 43.603490 -110.737065 110 6430ft 0kts

Navigation Log

Ident Type
Flight plan parsing failed, navigation log unavailable